Time;durP1;ratioP1;P1;durP2;ratioP2;P2;SDS_P1;SDS_P2;PMS_P1;PMS_P2;Temp;Humidity;BMP_temperature;BMP_pressure;BME280_temperature;BME280_humidity;BME280_pressure;Samples;Min_cycle;Max_cycle;Signal;HPM_P1;HPM_P2
2022/10/14 00:02:14;;;;;;;31.52;15.63;;;13.20;91.80;;;;;;5094096;28;20081;-39
2022/10/14 00:04:39;;;;;;;24.13;14.18;;;13.20;92.00;;;;;;5093498;28;20414;-39
2022/10/14 00:07:05;;;;;;;27.05;17.13;;;13.30;91.60;;;;;;5093764;28;20401;-39
2022/10/14 00:09:30;;;;;;;33.10;17.83;;;13.30;91.40;;;;;;5093669;28;20028;-39
2022/10/14 00:11:56;;;;;;;28.35;16.30;;;13.20;91.50;;;;;;5093431;28;20024;-39
2022/10/14 00:14:22;;;;;;;23.50;14.52;;;13.10;91.70;;;;;;5093513;28;20388;-39
2022/10/14 00:16:51;;;;;;;27.25;15.52;;;13.10;91.90;;;;;;5093422;28;20102;-39
2022/10/14 00:19:17;;;;;;;31.63;16.45;;;13.30;91.90;;;;;;5093331;28;20030;-39
2022/10/14 00:21:44;;;;;;;25.85;15.23;;;13.20;91.70;;;;;;5091935;28;20024;-38
2022/10/14 00:24:14;;;;;;;26.15;15.77;;;13.20;91.70;;;;;;5093536;28;20384;-40
2022/10/14 00:26:40;;;;;;;29.55;17.02;;;13.20;91.90;;;;;;5093636;28;20031;-39
2022/10/14 00:29:11;;;;;;;29.10;17.60;;;13.30;91.80;;;;;;5093457;28;20504;-39
2022/10/14 00:31:37;;;;;;;28.38;15.95;;;13.30;91.60;;;;;;5093585;28;20487;-39
2022/10/14 00:34:03;;;;;;;33.67;17.30;;;13.30;91.40;;;;;;5093330;28;20146;-38
2022/10/14 00:36:29;;;;;;;28.23;15.57;;;13.30;91.40;;;;;;5093472;28;20028;-40
2022/10/14 00:38:54;;;;;;;31.10;18.02;;;13.30;91.50;;;;;;5093326;28;20035;-40
2022/10/14 00:41:27;;;;;;;29.35;16.27;;;13.30;91.40;;;;;;5093243;28;20020;-38
2022/10/14 00:43:58;;;;;;;27.63;16.15;;;13.30;91.40;;;;;;5093463;28;20024;-38
2022/10/14 00:46:25;;;;;;;28.52;16.05;;;13.20;91.50;;;;;;5093302;28;20034;-39
2022/10/14 00:48:51;;;;;;;28.90;15.07;;;13.30;91.90;;;;;;5093679;28;20353;-38
2022/10/14 00:51:18;;;;;;;24.45;15.23;;;13.20;91.60;;;;;;5093162;28;20024;-40
2022/10/14 00:53:45;;;;;;;36.42;15.45;;;13.20;91.80;;;;;;5092907;28;20055;-38
2022/10/14 00:56:14;;;;;;;27.80;15.90;;;13.10;91.90;;;;;;5092587;28;20052;-40
2022/10/14 00:58:40;;;;;;;32.42;18.20;;;13.20;92.00;;;;;;5091571;28;20020;-40
2022/10/14 01:01:06;;;;;;;27.35;17.45;;;13.30;91.70;;;;;;5092704;28;20104;-40
2022/10/14 01:03:33;;;;;;;31.75;17.50;;;13.20;91.70;;;;;;5092981;28;20212;-41
2022/10/14 01:06:36;;;;;;;29.95;18.40;;;13.20;91.90;;;;;;5092528;28;20036;-39
2022/10/14 01:09:17;;;;;;;30.02;19.30;;;13.30;91.90;;;;;;5092790;28;20471;-39
2022/10/14 01:12:06;;;;;;;36.30;19.50;;;13.30;91.70;;;;;;5092603;28;20028;-38
2022/10/14 01:14:49;;;;;;;33.67;17.70;;;13.30;91.60;;;;;;5092936;28;20036;-39
2022/10/14 01:17:24;;;;;;;28.30;18.15;;;13.30;91.50;;;;;;5093100;28;20023;-39
2022/10/14 01:20:27;;;;;;;30.95;18.20;;;13.30;91.80;;;;;;5096652;28;20031;-38
2022/10/14 01:22:55;;;;;;;37.80;18.30;;;13.30;91.80;;;;;;5096480;28;20020;-38
2022/10/14 01:25:45;;;;;;;32.03;18.40;;;13.30;91.80;;;;;;5096551;28;20020;-38
2022/10/14 01:28:27;;;;;;;33.92;17.85;;;13.30;91.90;;;;;;5096794;28;20113;-40
2022/10/14 01:31:02;;;;;;;28.80;19.13;;;13.30;91.80;;;;;;5096689;28;20043;-38
2022/10/14 01:33:34;;;;;;;31.60;18.38;;;13.30;91.90;;;;;;5095171;28;20027;-40
2022/10/14 01:36:03;;;;;;;35.42;18.42;;;13.30;92.20;;;;;;5096478;28;20039;-38
2022/10/14 01:38:31;;;;;;;34.03;16.52;;;13.30;92.00;;;;;;5096409;28;20166;-40
2022/10/14 01:41:28;;;;;;;32.90;18.02;;;13.10;92.00;;;;;;5096355;28;20045;-40
2022/10/14 01:43:56;;;;;;;32.17;16.90;;;13.10;92.30;;;;;;5094180;28;20043;-40
2022/10/14 01:46:25;;;;;;;25.52;17.85;;;13.20;92.40;;;;;;5096681;28;20035;-38
2022/10/14 01:48:55;;;;;;;33.30;18.48;;;13.30;92.30;;;;;;5096447;28;20036;-38
2022/10/14 01:51:30;;;;;;;;;;;13.20;92.20;;;;;;5097059;28;20028;-38
2022/10/14 01:54:05;;;;;;;31.30;16.92;;;13.20;92.30;;;;;;5096091;28;19904;-38
2022/10/14 01:56:32;;;;;;;32.80;17.15;;;13.30;92.20;;;;;;5096090;28;20082;-39
2022/10/14 01:58:59;;;;;;;31.02;18.77;;;13.20;92.20;;;;;;5096346;28;20422;-39
2022/10/14 02:01:25;;;;;;;28.25;18.65;;;13.20;92.20;;;;;;5096337;28;20020;-39
2022/10/14 02:03:51;;;;;;;34.30;18.15;;;13.30;92.20;;;;;;5096346;28;20115;-39
2022/10/14 02:06:32;;;;;;;33.55;18.05;;;13.20;92.20;;;;;;5096365;28;20184;-39
2022/10/14 02:09:16;;;;;;;30.30;17.17;;;13.20;92.40;;;;;;5096338;28;20459;-39
2022/10/14 02:11:56;;;;;;;32.38;18.50;;;13.20;92.40;;;;;;5095831;28;20032;-39
2022/10/14 02:14:42;;;;;;;39.75;19.20;;;13.30;92.40;;;;;;5095728;28;20127;-39
2022/10/14 02:17:23;;;;;;;34.53;19.90;;;13.20;92.50;;;;;;5094438;28;20031;-39
2022/10/14 02:19:59;;;;;;;37.65;19.83;;;13.20;92.40;;;;;;5095861;28;20020;-39
2022/10/14 02:22:37;;;;;;;34.47;19.98;;;13.30;92.60;;;;;;5095942;28;20020;-39
2022/10/14 02:25:27;;;;;;;34.33;18.95;;;13.20;92.70;;;;;;5095647;28;20372;-39
2022/10/14 02:27:53;;;;;;;35.83;18.90;;;13.20;92.70;;;;;;5095143;28;20533;-39
2022/10/14 02:30:20;;;;;;;32.80;18.08;;;13.20;92.70;;;;;;5095434;28;20023;-39
2022/10/14 02:32:48;;;;;;;33.20;18.48;;;13.30;92.70;;;;;;5095311;28;20052;-39
2022/10/14 02:35:17;;;;;;;34.08;18.10;;;13.20;92.70;;;;;;5095384;28;20012;-39
2022/10/14 02:37:45;;;;;;;31.35;18.55;;;13.20;92.70;;;;;;5095316;28;20103;-39
2022/10/14 02:40:16;;;;;;;46.08;23.35;;;13.10;92.80;;;;;;5095781;28;20476;-39
2022/10/14 02:42:41;;;;;;;37.85;18.33;;;13.30;92.90;;;;;;5095910;28;20020;-39
2022/10/14 02:45:09;;;;;;;31.02;18.58;;;13.30;92.60;;;;;;5095303;28;20047;-39
2022/10/14 02:47:35;;;;;;;42.42;18.58;;;13.30;92.50;;;;;;5095067;28;20194;-39
2022/10/14 02:50:01;;;;;;;34.65;18.40;;;13.30;92.40;;;;;;5095230;28;20020;-39
2022/10/14 02:52:26;;;;;;;37.63;18.63;;;13.30;92.30;;;;;;5094999;28;20021;-39
2022/10/14 02:54:52;;;;;;;33.35;18.10;;;13.30;92.40;;;;;;5094767;28;20031;-40
2022/10/14 02:57:17;;;;;;;43.65;17.63;;;13.30;92.60;;;;;;5093591;28;20031;-39
2022/10/14 02:59:43;;;;;;;32.97;18.98;;;13.30;92.40;;;;;;5095016;28;20028;-38
2022/10/14 03:02:09;;;;;;;33.83;17.85;;;13.30;92.40;;;;;;5094781;28;20142;-42
2022/10/14 03:04:35;;;;;;;31.33;18.48;;;13.30;92.50;;;;;;5093376;28;20028;-38
2022/10/14 03:07:01;;;;;;;28.42;17.17;;;13.30;92.50;;;;;;5094965;28;20024;-38
2022/10/14 03:09:27;;;;;;;31.80;19.13;;;13.30;92.50;;;;;;5093323;28;20130;-38
2022/10/14 03:11:52;;;;;;;34.22;18.90;;;13.30;92.70;;;;;;5094781;28;20428;-39
2022/10/14 03:14:18;;;;;;;27.33;16.48;;;13.30;92.60;;;;;;5094742;28;20024;-39
2022/10/14 03:16:43;;;;;;;26.88;17.20;;;13.30;92.80;;;;;;5094427;28;20020;-39
2022/10/14 03:19:09;;;;;;;35.25;18.33;;;13.30;92.70;;;;;;5094372;28;20021;-38
2022/10/14 03:21:34;;;;;;;25.77;15.88;;;13.20;92.80;;;;;;5094618;28;20035;-38
2022/10/14 03:24:00;;;;;;;22.35;14.38;;;13.10;92.90;;;;;;5094440;28;20114;-39
2022/10/14 03:26:26;;;;;;;33.72;16.67;;;13.10;93.00;;;;;;5094309;28;20055;-38
2022/10/14 03:28:52;;;;;;;28.33;17.42;;;13.10;93.10;;;;;;5095283;28;20046;-38
2022/10/14 03:31:18;;;;;;;25.90;14.73;;;13.00;93.20;;;;;;5094668;28;20020;-39
2022/10/14 03:33:44;;;;;;;28.55;16.38;;;13.00;93.40;;;;;;5094221;28;20032;-39
2022/10/14 03:36:11;;;;;;;33.15;17.63;;;13.00;93.50;;;;;;5094347;28;20032;-39
2022/10/14 03:38:36;;;;;;;31.02;17.13;;;13.00;93.60;;;;;;5094381;28;20107;-39
2022/10/14 03:41:02;;;;;;;33.40;16.88;;;13.00;93.70;;;;;;5093148;28;20436;-37
2022/10/14 03:43:28;;;;;;;29.33;17.13;;;13.00;93.80;;;;;;5093955;28;20103;-40
2022/10/14 03:45:54;;;;;;;32.47;18.45;;;13.10;93.70;;;;;;5093981;28;20020;-40
2022/10/14 03:48:20;;;;;;;34.70;18.63;;;13.00;93.70;;;;;;5093940;28;20082;-40
2022/10/14 03:50:46;;;;;;;33.35;17.75;;;13.00;93.80;;;;;;5093843;28;20089;-40
2022/10/14 03:53:12;;;;;;;34.17;18.25;;;13.10;93.90;;;;;;5093802;28;20032;-43
2022/10/14 03:55:38;;;;;;;31.17;17.20;;;13.00;93.90;;;;;;5094350;28;20071;-38
2022/10/14 03:58:04;;;;;;;30.75;18.17;;;13.00;94.00;;;;;;5094819;28;20023;-40
2022/10/14 04:00:30;;;;;;;32.03;18.13;;;13.10;94.00;;;;;;5093720;28;20016;-40
2022/10/14 04:02:55;;;;;;;36.33;19.77;;;13.00;93.90;;;;;;5093704;28;20051;-39
2022/10/14 04:05:21;;;;;;;33.15;18.35;;;13.00;94.00;;;;;;5094300;28;20035;-39
2022/10/14 04:07:46;;;;;;;31.85;18.25;;;13.00;94.00;;;;;;5094009;28;20154;-39
2022/10/14 04:10:12;;;;;;;34.33;19.65;;;13.00;94.00;;;;;;5093908;28;20535;-39
2022/10/14 04:12:39;;;;;;;28.35;17.65;;;13.00;94.10;;;;;;5094240;28;20031;-39
2022/10/14 04:15:06;;;;;;;28.90;18.58;;;12.90;94.10;;;;;;5094546;28;20027;-39
2022/10/14 04:17:32;;;;;;;34.72;19.35;;;13.00;94.30;;;;;;5093802;28;20095;-39
2022/10/14 04:19:58;;;;;;;30.48;17.83;;;13.00;94.30;;;;;;5093700;28;20048;-39
2022/10/14 04:22:23;;;;;;;30.23;17.67;;;13.10;94.30;;;;;;5094099;28;20016;-39
2022/10/14 04:24:49;;;;;;;31.60;19.38;;;13.10;94.20;;;;;;5093909;28;20023;-39
2022/10/14 04:27:16;;;;;;;34.03;18.67;;;13.00;94.20;;;;;;5093943;28;20099;-38
2022/10/14 04:29:41;;;;;;;32.53;19.55;;;13.00;94.30;;;;;;5094656;28;20051;-40
2022/10/14 04:32:07;;;;;;;37.28;20.20;;;13.10;94.50;;;;;;5093707;28;20033;-40
2022/10/14 04:34:33;;;;;;;45.83;23.23;;;13.10;94.20;;;;;;5092210;28;20028;-39
2022/10/14 04:36:58;;;;;;;40.78;22.02;;;13.20;94.30;;;;;;5093698;28;20028;-39
2022/10/14 04:39:24;;;;;;;41.15;22.40;;;13.20;94.00;;;;;;5093981;28;20027;-39
2022/10/14 04:41:50;;;;;;;34.97;20.08;;;13.20;94.10;;;;;;5093948;28;20107;-41
2022/10/14 04:44:15;;;;;;;36.10;20.13;;;13.30;94.00;;;;;;5094257;28;20028;-41
2022/10/14 04:46:41;;;;;;;37.50;20.23;;;13.20;93.90;;;;;;5093828;28;20031;-41
2022/10/14 04:49:08;;;;;;;34.72;19.73;;;13.30;94.10;;;;;;5093497;28;20028;-38
2022/10/14 04:51:33;;;;;;;35.58;21.23;;;13.20;93.80;;;;;;5093284;28;20032;-39
2022/10/14 04:53:59;;;;;;;29.48;18.75;;;13.20;93.90;;;;;;5093325;28;20028;-39
2022/10/14 04:56:25;;;;;;;35.40;20.08;;;13.20;94.00;;;;;;5092908;28;20170;-39
2022/10/14 04:58:50;;;;;;;33.13;20.00;;;13.20;94.00;;;;;;5093043;28;20031;-39
2022/10/14 05:01:17;;;;;;;32.80;19.80;;;13.10;93.90;;;;;;5091704;28;20028;-40
2022/10/14 05:03:43;;;;;;;31.52;19.42;;;13.20;94.00;;;;;;5093155;28;20021;-39
2022/10/14 05:06:09;;;;;;;29.85;17.60;;;13.20;93.90;;;;;;5091574;28;20074;-39
2022/10/14 05:08:35;;;;;;;32.25;17.65;;;13.20;94.00;;;;;;5092688;28;20043;-39
2022/10/14 05:11:01;;;;;;;29.27;19.02;;;13.20;93.90;;;;;;5093151;28;20043;-39
2022/10/14 05:13:28;;;;;;;33.28;19.65;;;13.10;93.90;;;;;;5092928;28;20027;-39
2022/10/14 05:15:54;;;;;;;27.13;17.63;;;13.10;94.00;;;;;;5093034;28;20146;-39
2022/10/14 05:18:19;;;;;;;28.45;17.40;;;13.10;94.10;;;;;;5092028;28;20055;-40
2022/10/14 05:20:45;;;;;;;27.50;16.73;;;13.10;94.10;;;;;;5091845;28;20028;-40
2022/10/14 05:23:10;;;;;;;25.08;15.82;;;13.10;94.10;;;;;;5092676;28;20021;-40
2022/10/14 05:25:36;;;;;;;25.77;17.02;;;13.10;94.20;;;;;;5092588;28;20024;-38
2022/10/14 05:28:02;;;;;;;26.83;17.10;;;13.00;94.20;;;;;;5091222;28;20025;-38
2022/10/14 05:30:28;;;;;;;26.98;17.02;;;13.10;94.20;;;;;;5092787;28;20034;-39
2022/10/14 05:32:53;;;;;;;32.70;16.90;;;13.10;94.30;;;;;;5092630;28;20186;-39
2022/10/14 05:35:19;;;;;;;23.77;15.80;;;13.20;94.30;;;;;;5092332;28;20024;-39
2022/10/14 05:37:45;;;;;;;26.02;17.77;;;13.20;94.30;;;;;;5091393;28;20032;-40
2022/10/14 05:40:11;;;;;;;29.15;17.33;;;13.10;94.20;;;;;;5091837;28;20099;-39
2022/10/14 05:42:36;;;;;;;25.20;16.73;;;13.10;94.30;;;;;;5092791;28;20069;-39
2022/10/14 16:56:56;;;;;;;18.77;11.75;;;14.80;95.10;;;;;;5091116;27;20390;-39
2022/10/14 16:59:23;;;;;;;16.70;11.90;;;14.80;95.10;;;;;;5090884;28;20061;-38
2022/10/14 17:01:49;;;;;;;15.23;11.55;;;14.80;95.10;;;;;;5091234;28;20030;-39
2022/10/14 17:04:19;;;;;;;19.02;13.57;;;14.90;95.10;;;;;;5090689;28;20055;-39
2022/10/14 17:06:47;;;;;;;19.42;11.77;;;14.80;95.00;;;;;;5088757;28;20024;-38
2022/10/14 17:09:14;;;;;;;17.27;9.88;;;14.90;95.00;;;;;;5090108;28;20070;-39
2022/10/14 17:11:41;;;;;;;19.65;11.45;;;15.00;95.00;;;;;;5089989;28;20031;-39
2022/10/14 17:14:08;;;;;;;16.15;11.85;;;14.90;94.90;;;;;;5088550;28;20099;-39
2022/10/14 17:16:34;;;;;;;15.18;12.00;;;15.00;94.90;;;;;;5090144;28;20488;-39
2022/10/14 17:19:00;;;;;;;15.30;11.85;;;15.10;94.90;;;;;;5089967;28;20012;-39
2022/10/14 17:21:28;;;;;;;16.45;10.50;;;15.10;94.70;;;;;;5090246;28;20025;-39
2022/10/14 17:23:57;;;;;;;16.95;12.18;;;15.00;94.60;;;;;;5090359;28;20024;-40
2022/10/14 17:26:22;;;;;;;17.27;11.10;;;15.00;94.70;;;;;;5090448;28;20047;-40
2022/10/14 17:28:49;;;;;;;20.02;12.90;;;15.10;94.60;;;;;;5089971;28;20048;-39
2022/10/14 17:31:18;;;;;;;16.80;12.38;;;15.10;94.40;;;;;;5090225;28;20075;-39
2022/10/14 17:33:44;;;;;;;15.27;12.27;;;15.10;94.40;;;;;;5090002;28;20032;-39
2022/10/14 17:36:26;;;;;;;19.92;13.07;;;15.10;94.30;;;;;;5090236;28;20028;-39
2022/10/14 17:38:54;;;;;;;15.85;12.05;;;15.10;94.20;;;;;;5090564;28;20130;-40
2022/10/14 17:41:20;;;;;;;15.00;11.00;;;15.10;94.10;;;;;;5090935;28;20357;-40
2022/10/14 17:43:50;;;;;;;15.80;12.77;;;15.10;94.10;;;;;;5090556;28;20021;-39
2022/10/14 17:46:19;;;;;;;;;;;15.20;94.00;;;;;;5090987;28;20031;-41
2022/10/14 17:48:51;;;;;;;16.08;12.65;;;15.10;93.90;;;;;;5090715;28;20268;-40
2022/10/14 17:51:19;;;;;;;15.50;12.10;;;15.00;93.90;;;;;;5090733;28;20036;-39
2022/10/14 17:53:44;;;;;;;20.23;14.27;;;14.90;93.90;;;;;;5089449;28;20082;-41
2022/10/14 17:56:11;;;;;;;16.38;11.57;;;15.00;94.00;;;;;;5089234;28;20036;-40
2022/10/14 17:58:38;;;;;;;17.92;10.73;;;14.90;93.90;;;;;;5090437;28;20116;-39
2022/10/14 18:01:12;;;;;;;16.13;11.88;;;14.80;93.90;;;;;;5090322;28;20074;-41
2022/10/14 18:03:42;;;;;;;17.13;10.48;;;14.90;93.90;;;;;;5090882;28;20074;-40
2022/10/14 18:06:15;;;;;;;14.57;9.90;;;14.80;93.90;;;;;;5090215;28;20040;-40
2022/10/14 18:08:42;;;;;;;15.82;10.82;;;14.80;93.90;;;;;;5076623;28;20104;-40
2022/10/14 18:11:09;;;;;;;15.18;10.13;;;14.80;93.90;;;;;;5075955;28;20106;-40
2022/10/14 18:13:35;;;;;;;14.90;10.00;;;14.80;93.80;;;;;;5076114;28;20025;-38
2022/10/14 18:16:10;;;;;;;14.05;9.25;;;14.70;93.90;;;;;;5076297;28;20455;-38
2022/10/14 18:18:36;;;;;;;17.25;10.25;;;14.80;94.00;;;;;;5075708;28;20025;-40
2022/10/14 18:21:03;;;;;;;17.15;11.80;;;14.80;93.80;;;;;;5074453;28;20021;-40
2022/10/14 18:23:31;;;;;;;14.70;9.93;;;14.80;93.80;;;;;;5075654;28;20475;-39
2022/10/14 18:26:07;;;;;;;16.98;12.27;;;14.70;93.90;;;;;;5075412;28;20094;-39
2022/10/14 18:28:37;;;;;;;17.15;11.55;;;14.60;93.90;;;;;;5075659;28;20032;-40
2022/10/14 18:31:15;;;;;;;16.27;10.75;;;14.60;94.10;;;;;;5075426;28;20037;-41
2022/10/14 18:33:42;;;;;;;22.75;14.30;;;14.70;94.10;;;;;;5075109;28;20021;-40
2022/10/14 18:36:09;;;;;;;20.20;12.40;;;14.70;94.30;;;;;;5074889;28;20048;-39
2022/10/14 18:38:36;;;;;;;18.13;12.10;;;14.80;94.20;;;;;;5074994;28;20028;-39
2022/10/14 18:41:09;;;;;;;23.20;13.65;;;14.70;94.00;;;;;;5074790;28;20020;-38
2022/10/14 18:43:34;;;;;;;21.13;13.57;;;14.60;94.00;;;;;;5075020;28;20031;-40
2022/10/14 18:46:12;;;;;;;18.10;12.45;;;14.60;94.20;;;;;;5075276;28;20024;-38
2022/10/14 18:48:45;;;;;;;15.90;11.98;;;14.60;94.20;;;;;;5074952;28;20031;-39
2022/10/14 18:51:11;;;;;;;15.75;11.30;;;14.60;94.30;;;;;;5075299;28;20496;-39
2022/10/14 18:53:38;;;;;;;17.08;10.75;;;14.50;94.30;;;;;;5075491;28;20025;-39
2022/10/14 18:56:08;;;;;;;22.92;11.43;;;14.50;94.30;;;;;;5074946;28;20093;-39
2022/10/14 18:58:35;;;;;;;17.50;12.48;;;14.50;94.40;;;;;;5075097;28;20388;-39
2022/10/14 19:01:01;;;;;;;18.15;12.30;;;14.50;94.40;;;;;;5074965;28;20116;-39
2022/10/14 19:03:26;;;;;;;19.67;14.07;;;14.50;94.30;;;;;;5075260;28;20021;-39
2022/10/14 19:05:55;;;;;;;19.45;12.00;;;14.50;94.20;;;;;;5073177;28;20024;-39
2022/10/14 19:08:21;;;;;;;17.73;12.20;;;14.50;94.10;;;;;;5074592;28;20112;-38
2022/10/14 19:10:47;;;;;;;18.48;11.90;;;14.40;94.10;;;;;;5074392;28;20587;-39
2022/10/14 19:13:13;;;;;;;17.13;11.90;;;14.30;94.20;;;;;;5074354;28;20032;-39
2022/10/14 19:15:43;;;;;;;17.52;11.40;;;14.20;94.20;;;;;;5074212;28;20052;-40
2022/10/14 19:18:11;;;;;;;15.45;12.05;;;14.20;94.30;;;;;;5074017;28;20017;-39
2022/10/14 19:20:37;;;;;;;15.40;11.63;;;14.30;94.50;;;;;;5074659;28;20419;-39
2022/10/14 19:23:03;;;;;;;20.52;13.18;;;14.20;94.50;;;;;;5073638;28;20528;-40
2022/10/14 19:25:29;;;;;;;20.00;13.52;;;14.30;94.50;;;;;;5074883;28;20032;-38
2022/10/14 19:27:55;;;;;;;20.67;13.00;;;14.30;94.60;;;;;;5074727;28;20052;-39
2022/10/14 19:30:21;;;;;;;17.80;11.82;;;14.30;94.60;;;;;;5074087;28;20056;-40
2022/10/14 19:32:46;;;;;;;18.52;12.43;;;14.30;94.50;;;;;;5074120;28;20108;-40
2022/10/14 19:35:12;;;;;;;20.27;12.55;;;14.20;94.50;;;;;;5074155;28;20056;-39
2022/10/14 19:37:37;;;;;;;21.75;12.25;;;14.10;94.60;;;;;;5073931;28;20025;-39
2022/10/14 19:40:03;;;;;;;23.77;13.68;;;14.10;94.70;;;;;;5072432;28;20069;-40
2022/10/14 19:42:29;;;;;;;21.88;13.25;;;14.10;94.70;;;;;;5073636;28;20024;-39
2022/10/14 19:44:55;;;;;;;20.10;12.98;;;14.20;94.80;;;;;;5073755;28;20036;-40
2022/10/14 19:47:20;;;;;;;22.17;12.85;;;14.10;94.80;;;;;;5073509;28;20032;-39
2022/10/14 19:49:46;;;;;;;18.98;13.05;;;14.10;94.80;;;;;;5073594;28;20103;-39
2022/10/14 19:52:11;;;;;;;24.88;14.90;;;14.10;94.90;;;;;;5073486;28;20058;-38
2022/10/14 19:54:37;;;;;;;21.13;14.48;;;14.10;94.90;;;;;;5073091;28;20025;-39
2022/10/14 19:57:03;;;;;;;21.35;14.30;;;14.30;95.00;;;;;;5073318;28;20329;-38
2022/10/14 19:59:28;;;;;;;23.55;14.70;;;14.40;95.00;;;;;;5073272;28;20031;-39
2022/10/14 20:01:54;;;;;;;24.08;15.13;;;14.30;94.70;;;;;;5073687;28;20472;-39
2022/10/14 20:04:21;;;;;;;23.02;15.20;;;14.30;94.60;;;;;;5074149;28;20054;-39
2022/10/14 20:06:47;;;;;;;22.85;14.60;;;14.20;94.70;;;;;;5073314;28;20021;-39
2022/10/14 20:09:15;;;;;;;23.30;15.45;;;14.20;94.70;;;;;;5073440;28;20039;-40
2022/10/14 20:11:41;;;;;;;23.40;16.05;;;14.30;94.80;;;;;;5073352;28;20031;-40
2022/10/14 20:14:06;;;;;;;26.27;16.27;;;14.30;94.80;;;;;;5071907;28;20025;-40
2022/10/14 20:16:32;;;;;;;21.63;15.02;;;14.30;94.70;;;;;;5072267;28;20377;-40
2022/10/14 20:18:58;;;;;;;24.80;14.73;;;14.40;94.80;;;;;;5074052;28;20074;-41
2022/10/14 20:21:28;;;;;;;24.30;16.23;;;14.30;94.70;;;;;;5073447;28;20029;-40
2022/10/14 20:23:55;;;;;;;28.45;16.38;;;14.40;94.80;;;;;;5072840;28;20101;-39
2022/10/14 20:26:24;;;;;;;23.35;15.88;;;14.40;94.70;;;;;;5073554;28;20128;-41
2022/10/14 20:28:50;;;;;;;28.88;17.50;;;14.40;94.60;;;;;;5073675;28;20440;-39
2022/10/14 20:31:18;;;;;;;30.58;18.90;;;14.40;94.50;;;;;;5073628;28;20048;-41
2022/10/14 20:33:46;;;;;;;29.20;17.05;;;14.40;94.50;;;;;;5055182;28;20479;-40
2022/10/14 20:36:18;;;;;;;28.33;17.40;;;14.40;94.60;;;;;;5072380;28;20518;-45
2022/10/14 20:38:44;;;;;;;24.17;16.05;;;14.30;94.50;;;;;;5073371;28;20028;-39
2022/10/14 20:41:16;;;;;;;23.60;16.27;;;14.40;94.60;;;;;;5072771;28;20028;-39
2022/10/14 20:43:43;;;;;;;26.58;16.48;;;14.30;94.60;;;;;;5072758;28;20056;-41
2022/10/14 20:46:09;;;;;;;25.17;15.40;;;14.20;94.70;;;;;;5074169;28;20484;-40
2022/10/14 20:48:38;;;;;;;21.40;15.80;;;14.30;94.80;;;;;;5072272;28;20028;-39
2022/10/14 20:51:05;;;;;;;26.55;16.60;;;14.30;94.80;;;;;;5072173;28;20025;-39
2022/10/14 20:53:31;;;;;;;22.77;16.38;;;14.30;94.80;;;;;;5073792;28;20437;-40
2022/10/14 20:56:02;;;;;;;24.52;16.58;;;14.30;94.80;;;;;;5072882;28;20431;-39
2022/10/14 20:58:28;;;;;;;25.77;16.10;;;14.30;94.80;;;;;;5073211;28;20032;-40
2022/10/14 21:01:09;;;;;;;26.10;15.80;;;14.20;94.80;;;;;;5072883;28;20029;-41
2022/10/14 21:03:35;;;;;;;26.48;17.35;;;14.20;94.90;;;;;;5073135;28;20059;-40
2022/10/14 21:06:03;;;;;;;31.52;17.00;;;14.30;95.00;;;;;;5073564;28;20156;-40
2022/10/14 21:08:29;;;;;;;27.15;17.55;;;14.30;94.80;;;;;;5072764;28;20071;-40
2022/10/14 21:11:03;;;;;;;30.08;18.05;;;14.30;94.80;;;;;;5072877;28;20048;-40
2022/10/14 21:13:29;;;;;;;24.55;16.40;;;14.20;94.90;;;;;;5072446;28;20033;-39
2022/10/14 21:15:55;;;;;;;29.13;18.55;;;14.30;94.90;;;;;;5072362;28;20111;-40
2022/10/14 21:18:22;;;;;;;29.35;17.38;;;14.20;94.90;;;;;;5072815;28;20029;-39
2022/10/14 21:20:48;;;;;;;29.88;18.95;;;14.20;94.90;;;;;;5072760;28;20033;-39
2022/10/14 21:23:14;;;;;;;33.47;19.63;;;14.20;94.90;;;;;;5072458;28;20021;-41
2022/10/14 21:25:40;;;;;;;38.08;18.35;;;14.20;94.90;;;;;;5072670;28;20107;-39
2022/10/14 21:28:05;;;;;;;29.25;17.83;;;14.20;94.90;;;;;;5072748;28;20028;-38
2022/10/14 21:30:31;;;;;;;28.58;17.90;;;14.20;94.90;;;;;;5072253;28;20024;-39
2022/10/14 21:32:56;;;;;;;27.73;17.75;;;14.10;94.90;;;;;;5072612;28;20055;-39
2022/10/14 21:35:22;;;;;;;33.00;16.80;;;14.10;94.90;;;;;;5072020;28;20078;-40
2022/10/14 21:37:50;;;;;;;28.52;17.08;;;14.10;94.90;;;;;;5072310;28;20104;-39
2022/10/14 21:40:16;;;;;;;32.00;17.88;;;14.10;95.00;;;;;;5072439;28;20188;-38
2022/10/14 21:42:41;;;;;;;23.80;16.48;;;14.00;95.00;;;;;;5072852;28;20118;-40
2022/10/14 21:45:07;;;;;;;28.90;17.75;;;14.00;95.00;;;;;;5075984;28;20029;-40
2022/10/14 21:47:33;;;;;;;26.88;16.92;;;14.00;95.10;;;;;;5076180;28;20521;-38
2022/10/14 21:49:58;;;;;;;27.30;17.08;;;14.00;95.10;;;;;;5074656;28;20032;-39
2022/10/14 21:52:24;;;;;;;22.30;16.30;;;14.20;95.20;;;;;;5075657;28;20025;-39
2022/10/14 21:54:49;;;;;;;29.95;17.52;;;14.20;95.10;;;;;;5075306;28;20127;-39
2022/10/14 21:57:16;;;;;;;26.40;16.67;;;14.10;95.10;;;;;;5075884;28;20021;-39
2022/10/14 21:59:42;;;;;;;25.75;17.60;;;14.20;95.20;;;;;;5075855;28;20044;-39
2022/10/14 22:02:07;;;;;;;37.55;19.77;;;14.20;95.10;;;;;;5075664;28;20523;-39
2022/10/14 22:04:33;;;;;;;31.20;17.90;;;14.20;95.10;;;;;;5076497;28;20322;-41
2022/10/14 22:06:59;;;;;;;30.33;18.33;;;14.10;95.10;;;;;;5075541;28;20025;-39
2022/10/14 22:09:25;;;;;;;33.60;18.15;;;14.10;95.10;;;;;;5076130;28;20096;-38
2022/10/14 22:11:52;;;;;;;30.23;19.30;;;14.10;95.00;;;;;;5075608;28;20024;-38
2022/10/14 22:14:18;;;;;;;29.98;16.55;;;14.10;95.10;;;;;;5075616;28;20112;-40
2022/10/14 22:16:47;;;;;;;24.02;15.50;;;14.00;95.10;;;;;;5075501;28;20127;-39
2022/10/14 22:19:13;;;;;;;26.40;16.50;;;14.00;95.00;;;;;;5075559;28;20381;-39
2022/10/14 22:21:41;;;;;;;31.83;18.58;;;13.90;95.10;;;;;;5075726;28;20094;-39
2022/10/14 22:24:07;;;;;;;29.02;17.15;;;14.00;95.10;;;;;;5075879;28;20024;-39
2022/10/14 22:26:33;;;;;;;29.65;17.60;;;14.20;95.20;;;;;;5075472;28;20128;-39
2022/10/14 22:29:05;;;;;;;29.15;17.75;;;14.20;95.10;;;;;;5075741;28;20044;-38
2022/10/14 22:31:32;;;;;;;30.27;17.38;;;14.20;95.00;;;;;;5075830;28;20025;-41
2022/10/14 22:33:58;;;;;;;36.92;18.30;;;14.20;94.90;;;;;;5073901;28;20048;-39
2022/10/14 22:36:29;;;;;;;28.33;17.73;;;14.20;94.90;;;;;;5075022;28;20465;-39
2022/10/14 22:38:57;;;;;;;30.02;18.33;;;14.20;94.70;;;;;;5075015;28;20032;-38
2022/10/14 22:41:24;;;;;;;25.05;15.90;;;14.10;94.80;;;;;;5075268;28;20074;-40
2022/10/14 22:43:55;;;;;;;28.52;16.67;;;14.10;94.80;;;;;;5075078;28;20101;-39
2022/10/14 22:46:24;;;;;;;27.83;16.85;;;14.00;94.80;;;;;;5074925;28;20020;-39
2022/10/14 22:48:55;;;;;;;21.30;15.68;;;14.00;94.80;;;;;;5074778;28;20024;-40
2022/10/14 22:51:23;;;;;;;26.58;15.35;;;14.00;94.80;;;;;;5074882;28;20048;-40
2022/10/14 22:53:49;;;;;;;28.13;16.95;;;14.10;94.90;;;;;;5074518;28;20029;-40
2022/10/14 22:56:21;;;;;;;30.75;16.40;;;14.20;94.90;;;;;;5074605;28;20564;-39
2022/10/14 22:58:51;;;;;;;25.50;15.07;;;14.20;94.80;;;;;;5075041;28;20056;-38
2022/10/14 23:01:17;;;;;;;28.08;16.50;;;14.20;94.70;;;;;;5075062;28;20017;-39
2022/10/14 23:03:43;;;;;;;25.60;16.10;;;14.20;94.70;;;;;;5074462;28;20062;-39
2022/10/14 23:06:11;;;;;;;28.20;15.48;;;14.10;94.70;;;;;;5074865;28;20032;-40
2022/10/14 23:08:38;;;;;;;30.63;15.07;;;14.10;94.70;;;;;;5073509;28;20024;-40
2022/10/14 23:11:04;;;;;;;23.45;16.23;;;14.30;94.70;;;;;;5074273;28;20067;-38
2022/10/14 23:13:30;;;;;;;21.35;14.82;;;14.20;94.60;;;;;;5074382;28;20464;-39
2022/10/14 23:16:07;;;;;;;27.73;15.63;;;14.20;94.60;;;;;;5074384;28;20423;-41
2022/10/14 23:18:35;;;;;;;26.42;17.10;;;14.30;94.70;;;;;;5074616;28;20060;-39
2022/10/14 23:21:28;;;;;;;28.38;15.73;;;14.30;94.60;;;;;;5074431;28;20063;-39
2022/10/14 23:23:59;;;;;;;29.38;16.67;;;14.30;94.50;;;;;;5070669;28;20384;-39
2022/10/14 23:26:30;;;;;;;24.05;15.13;;;14.30;94.60;;;;;;5074542;28;20035;-39
2022/10/14 23:28:57;;;;;;;26.83;16.42;;;14.20;94.60;;;;;;5074362;28;20036;-40
2022/10/14 23:31:25;;;;;;;26.27;16.83;;;14.20;94.50;;;;;;5074137;28;20033;-40
2022/10/14 23:33:53;;;;;;;28.88;17.90;;;14.20;94.60;;;;;;5072590;28;20021;-39
2022/10/14 23:36:20;;;;;;;23.30;16.10;;;14.20;94.60;;;;;;5073660;28;20440;-40
2022/10/14 23:38:46;;;;;;;25.13;16.45;;;14.20;94.60;;;;;;5073655;28;20055;-40
2022/10/14 23:41:12;;;;;;;23.92;14.73;;;14.30;94.60;;;;;;5074089;28;20470;-39
2022/10/14 23:43:39;;;;;;;23.35;15.55;;;14.20;94.50;;;;;;5074345;28;20055;-40
2022/10/14 23:46:05;;;;;;;27.15;14.55;;;14.10;94.60;;;;;;5073702;28;20036;-39